Time;durP1;ratioP1;P1;durP2;ratioP2;P2;SDS_P1;SDS_P2;PMS_P1;PMS_P2;Temp;Humidity;BMP_temperature;BMP_pressure;BME280_temperature;BME280_humidity;BME280_pressure;Samples;Min_cycle;Max_cycle;Signal;HPM_P1;HPM_P2
2022/05/04 00:01:25;;;;;;;10.75;6.07;;;11.90;99.90;;;;;;5098290;28;20055;-64
2022/05/04 00:03:50;;;;;;;9.98;5.60;;;11.80;99.90;;;;;;5098125;28;20043;-63
2022/05/04 00:06:16;;;;;;;15.73;7.03;;;11.90;99.90;;;;;;5098572;28;20337;-63
2022/05/04 00:08:42;;;;;;;12.13;6.53;;;12.00;99.90;;;;;;5098031;28;20071;-63
2022/05/04 00:11:11;;;;;;;10.32;6.28;;;12.00;99.90;;;;;;5096946;28;20093;-63
2022/05/04 00:13:40;;;;;;;12.93;6.53;;;12.00;99.90;;;;;;5098074;28;20036;-63
2022/05/04 00:16:09;;;;;;;10.45;5.53;;;12.00;99.90;;;;;;5097897;28;20128;-63
2022/05/04 00:18:35;;;;;;;18.38;6.07;;;12.00;99.90;;;;;;5098255;28;20334;-64
2022/05/04 00:21:06;;;;;;;8.70;5.60;;;12.10;99.90;;;;;;5098095;28;20035;-64
2022/05/04 00:23:32;;;;;;;10.63;5.22;;;12.10;99.90;;;;;;5097699;28;20068;-64
2022/05/04 00:25:58;;;;;;;9.32;6.13;;;12.10;99.90;;;;;;5097543;28;20060;-63
2022/05/04 00:28:24;;;;;;;10.63;6.00;;;12.00;99.90;;;;;;5097968;28;20063;-64
2022/05/04 00:30:50;;;;;;;9.55;5.20;;;11.90;99.90;;;;;;5097818;28;20028;-64
2022/05/04 00:33:16;;;;;;;7.65;5.47;;;11.90;99.90;;;;;;5097829;28;20031;-64
2022/05/04 00:35:42;;;;;;;10.45;5.72;;;11.80;99.90;;;;;;5097648;28;20051;-65
2022/05/04 00:38:08;;;;;;;11.48;5.93;;;11.80;99.90;;;;;;5097607;28;20028;-64
2022/05/04 00:40:33;;;;;;;10.73;5.60;;;11.80;99.90;;;;;;5097578;28;20030;-64
2022/05/04 00:42:59;;;;;;;10.43;5.80;;;11.70;99.90;;;;;;5096807;28;20074;-64
2022/05/04 00:45:25;;;;;;;7.90;5.00;;;11.70;99.90;;;;;;5097469;28;20023;-63
2022/05/04 00:47:51;;;;;;;12.70;5.97;;;11.60;99.90;;;;;;5097318;28;20326;-63
2022/05/04 00:50:17;;;;;;;12.18;5.90;;;11.60;99.90;;;;;;5096771;28;20039;-64
2022/05/04 00:52:48;;;;;;;9.77;5.80;;;11.70;99.90;;;;;;5096925;28;20348;-63
2022/05/04 00:55:18;;;;;;;10.90;5.60;;;11.70;99.90;;;;;;5097539;28;20038;-64
2022/05/04 01:00:29;;;;;;;15.13;5.68;;;11.70;99.90;;;;;;5097370;28;20032;-64
2022/05/04 01:02:56;;;;;;;11.57;5.68;;;11.70;99.90;;;;;;5097238;28;20028;-64
2022/05/04 01:05:22;;;;;;;13.80;5.70;;;11.70;99.90;;;;;;5096646;28;20088;-64
2022/05/04 01:07:51;;;;;;;10.52;6.15;;;11.60;99.90;;;;;;5097398;28;20345;-64
2022/05/04 01:10:17;;;;;;;8.75;5.70;;;11.60;99.90;;;;;;5097157;28;20399;-64
2022/05/04 01:12:54;;;;;;;9.85;5.72;;;11.50;99.90;;;;;;5097028;28;20032;-63
2022/05/04 01:15:21;;;;;;;12.45;5.70;;;11.40;99.90;;;;;;5097122;28;20047;-63
2022/05/04 01:17:47;;;;;;;9.35;5.47;;;11.30;99.90;;;;;;5097028;28;20111;-64
2022/05/04 01:20:14;;;;;;;12.27;5.68;;;11.20;99.90;;;;;;5097002;28;20111;-65
2022/05/04 01:22:43;;;;;;;12.00;5.93;;;11.10;99.90;;;;;;5096232;28;20024;-64
2022/05/04 01:25:11;;;;;;;10.23;6.07;;;11.00;99.90;;;;;;5096900;28;20043;-64
2022/05/04 01:27:37;;;;;;;12.80;6.60;;;11.00;99.90;;;;;;5096814;28;20032;-65
2022/05/04 01:30:04;;;;;;;13.18;6.88;;;10.90;99.90;;;;;;5096584;28;20051;-64
2022/05/04 01:32:31;;;;;;;12.93;6.38;;;10.70;99.90;;;;;;5096428;28;20050;-64
2022/05/04 01:34:58;;;;;;;12.40;6.78;;;10.70;99.90;;;;;;5098698;28;20122;-64
2022/05/04 01:37:24;;;;;;;13.43;6.65;;;10.70;99.90;;;;;;5101023;28;20028;-64
2022/05/04 01:39:53;;;;;;;8.38;5.55;;;10.60;99.90;;;;;;5101050;28;20107;-64
2022/05/04 01:42:23;;;;;;;12.20;6.50;;;10.60;99.90;;;;;;5100115;28;20423;-64
2022/05/04 01:44:50;;;;;;;12.85;6.40;;;10.50;99.90;;;;;;5100993;28;20031;-64
2022/05/04 01:47:16;;;;;;;12.82;6.25;;;10.60;99.90;;;;;;5100797;28;20032;-64
2022/05/04 01:49:42;;;;;;;11.48;6.53;;;10.60;99.90;;;;;;5099791;28;20438;-65
2022/05/04 01:52:07;;;;;;;12.43;6.88;;;10.70;99.90;;;;;;5099583;28;20044;-64
2022/05/04 01:54:33;;;;;;;11.18;6.50;;;10.70;99.90;;;;;;5101033;28;20024;-64
2022/05/04 01:56:59;;;;;;;10.10;6.65;;;10.70;99.90;;;;;;5100502;28;20042;-64
2022/05/04 01:59:25;;;;;;;13.13;6.45;;;10.70;99.90;;;;;;5100554;28;20028;-64
2022/05/04 02:01:52;;;;;;;9.07;6.45;;;10.80;99.90;;;;;;5100740;28;20345;-64
2022/05/04 02:04:18;;;;;;;10.85;6.78;;;10.80;99.90;;;;;;5100473;28;20043;-65
2022/05/04 02:06:44;;;;;;;11.82;6.32;;;10.70;99.90;;;;;;5100460;28;20024;-65
2022/05/04 02:09:14;;;;;;;11.95;7.03;;;10.60;99.90;;;;;;5100723;28;20040;-65
2022/05/04 02:11:41;;;;;;;11.98;7.20;;;10.70;99.90;;;;;;5100700;28;20119;-64
2022/05/04 02:14:06;;;;;;;15.93;7.03;;;10.70;99.90;;;;;;5100588;28;20291;-64
2022/05/04 02:16:33;;;;;;;11.90;6.50;;;10.70;99.90;;;;;;5100633;28;20410;-65
2022/05/04 02:18:59;;;;;;;10.93;6.85;;;10.60;99.90;;;;;;5100357;28;20303;-64
2022/05/04 02:21:25;;;;;;;10.18;6.47;;;10.60;99.90;;;;;;5100092;28;20028;-65
2022/05/04 02:23:52;;;;;;;13.20;7.05;;;10.60;99.90;;;;;;5100173;28;20026;-65
2022/05/04 02:26:17;;;;;;;11.52;7.07;;;10.50;99.90;;;;;;5100542;28;20103;-65
2022/05/04 02:28:44;;;;;;;14.50;7.00;;;10.50;99.90;;;;;;5099993;28;20107;-65
2022/05/04 02:31:10;;;;;;;11.55;7.18;;;10.40;99.90;;;;;;5099587;28;20036;-65
2022/05/04 02:33:37;;;;;;;12.20;6.63;;;10.40;99.90;;;;;;5099918;28;20059;-65
2022/05/04 02:38:48;;;;;;;14.13;7.20;;;10.40;99.90;;;;;;5099472;28;20035;-64
2022/05/04 02:41:14;;;;;;;10.82;6.88;;;10.30;99.90;;;;;;5099742;28;20036;-64
2022/05/04 02:43:40;;;;;;;10.73;7.07;;;10.30;99.90;;;;;;5100103;28;20115;-64
2022/05/04 02:46:20;;;;;;;10.55;6.90;;;10.20;99.90;;;;;;5098433;28;20380;-64
2022/05/04 02:48:47;;;;;;;11.68;6.68;;;10.30;99.90;;;;;;5098733;28;20048;-63
2022/05/04 02:51:14;;;;;;;14.05;7.18;;;10.20;99.90;;;;;;5098028;28;20035;-64
2022/05/04 02:53:40;;;;;;;11.77;6.90;;;10.10;99.90;;;;;;5097637;28;20339;-64
2022/05/04 02:56:09;;;;;;;16.20;6.90;;;10.10;99.90;;;;;;5097675;28;20034;-65
2022/05/04 02:58:35;;;;;;;14.45;7.13;;;10.00;99.90;;;;;;5098392;28;20040;-64
2022/05/04 03:04:08;;;;;;;12.85;7.43;;;9.80;99.90;;;;;;5099401;28;20067;-64
2022/05/04 03:06:35;;;;;;;13.32;7.38;;;9.70;99.90;;;;;;5099413;28;20052;-64
2022/05/04 03:09:02;;;;;;;12.55;7.20;;;9.70;99.90;;;;;;5099006;28;20027;-64
2022/05/04 03:14:18;;;;;;;15.63;7.53;;;9.70;99.90;;;;;;5099439;28;20056;-65
2022/05/04 03:16:44;;;;;;;17.55;7.75;;;9.70;99.90;;;;;;5099070;28;20038;-64
2022/05/04 03:19:11;;;;;;;12.85;6.82;;;9.60;99.90;;;;;;5099280;28;20036;-64
2022/05/04 03:21:36;;;;;;;12.02;7.18;;;9.60;99.90;;;;;;5098968;28;20043;-64
2022/05/04 03:24:02;;;;;;;14.23;7.40;;;9.60;99.90;;;;;;5098531;28;20089;-64
2022/05/04 03:26:28;;;;;;;12.25;7.30;;;9.50;99.90;;;;;;5098849;28;20388;-64
2022/05/04 03:28:55;;;;;;;10.88;7.40;;;9.50;99.90;;;;;;5098852;28;20028;-65
2022/05/04 03:31:21;;;;;;;13.38;7.80;;;9.50;99.90;;;;;;5098751;28;20276;-65
2022/05/04 03:33:47;;;;;;;8.68;6.97;;;9.40;99.90;;;;;;5098105;28;20304;-65
2022/05/04 03:36:13;;;;;;;14.50;7.10;;;9.40;99.90;;;;;;5098937;28;20036;-65
2022/05/04 03:38:39;;;;;;;15.02;7.32;;;9.30;99.90;;;;;;5099247;28;20078;-64
2022/05/04 03:41:05;;;;;;;12.55;7.38;;;9.40;99.90;;;;;;5098597;28;20043;-64
2022/05/04 03:43:31;;;;;;;14.63;8.00;;;9.30;99.90;;;;;;5098226;28;20016;-65
2022/05/04 03:46:23;;;;;;;13.57;8.27;;;9.30;99.90;;;;;;5098572;28;20181;-65
2022/05/04 03:48:54;;;;;;;13.48;7.65;;;9.30;99.90;;;;;;5097690;28;20468;-64
2022/05/04 03:51:20;;;;;;;14.05;8.00;;;9.20;99.90;;;;;;5098485;28;20044;-65
2022/05/04 03:53:48;;;;;;;15.20;7.25;;;9.20;99.90;;;;;;5098323;28;20119;-65
2022/05/04 03:56:14;;;;;;;12.95;7.53;;;9.10;99.90;;;;;;5098664;28;20273;-64
2022/05/04 03:58:43;;;;;;;15.13;8.18;;;9.20;99.90;;;;;;5097909;28;20421;-65
2022/05/04 04:01:11;;;;;;;15.35;8.77;;;9.10;99.90;;;;;;5098242;28;20028;-64
2022/05/04 04:03:37;;;;;;;14.00;8.10;;;9.10;99.90;;;;;;5098294;28;20024;-65
2022/05/04 04:06:03;;;;;;;16.10;8.25;;;9.00;99.90;;;;;;5098131;28;20020;-64
2022/05/04 04:08:29;;;;;;;15.15;7.97;;;8.90;99.90;;;;;;5098762;28;20032;-64
2022/05/04 04:10:55;;;;;;;14.40;8.20;;;8.90;99.90;;;;;;5097984;28;20065;-66
2022/05/04 04:13:21;;;;;;;14.15;7.88;;;8.90;99.90;;;;;;5097205;28;20357;-64
2022/05/04 04:15:51;;;;;;;13.82;8.18;;;8.80;99.90;;;;;;5097952;28;20040;-64
2022/05/04 04:18:19;;;;;;;13.00;8.10;;;8.80;99.90;;;;;;5097911;28;20367;-64
2022/05/04 04:23:30;;;;;;;19.42;8.60;;;8.90;99.90;;;;;;5097847;28;20036;-65
2022/05/04 04:25:56;;;;;;;14.73;7.65;;;8.80;99.90;;;;;;5096968;28;20264;-64
2022/05/04 04:28:25;;;;;;;16.52;8.38;;;8.80;99.90;;;;;;5097162;28;20040;-65
2022/05/04 04:30:51;;;;;;;11.80;7.72;;;8.80;99.90;;;;;;5096971;28;20039;-64
2022/05/04 04:33:24;;;;;;;16.52;8.50;;;8.80;99.90;;;;;;5097692;28;20032;-65
2022/05/04 04:35:51;;;;;;;;;;;8.80;99.90;;;;;;5097255;28;20093;-64
2022/05/04 04:38:17;;;;;;;15.43;7.78;;;8.80;99.90;;;;;;5097566;28;19966;-65
2022/05/04 04:40:42;;;;;;;16.98;9.07;;;8.80;99.90;;;;;;5098058;28;20052;-64
2022/05/04 04:43:12;;;;;;;15.48;7.90;;;8.80;99.90;;;;;;5097501;28;20039;-65
2022/05/04 04:45:38;;;;;;;12.82;8.30;;;8.80;99.90;;;;;;5097487;28;20043;-65
2022/05/04 04:48:04;;;;;;;13.45;7.28;;;8.80;99.90;;;;;;5097093;28;20032;-65
2022/05/04 04:50:30;;;;;;;14.60;7.82;;;8.80;99.90;;;;;;5097363;28;20307;-65
2022/05/04 04:52:56;;;;;;;16.98;8.13;;;8.70;99.90;;;;;;5096516;28;20028;-65
2022/05/04 04:55:22;;;;;;;17.05;7.85;;;8.90;99.90;;;;;;5096469;28;20032;-65
2022/05/04 04:57:48;;;;;;;14.23;7.55;;;8.90;99.90;;;;;;5096391;28;20281;-65
2022/05/04 05:00:15;;;;;;;14.05;7.95;;;8.90;99.90;;;;;;5097293;28;20036;-65
2022/05/04 05:02:41;;;;;;;14.40;8.10;;;9.00;99.90;;;;;;5097311;28;20028;-64
2022/05/04 05:05:07;;;;;;;15.07;8.02;;;8.90;99.90;;;;;;5097187;28;20024;-64
2022/05/04 05:07:33;;;;;;;13.65;8.20;;;8.90;99.90;;;;;;5096485;28;20462;-64
2022/05/04 05:10:03;;;;;;;18.08;8.05;;;8.90;99.90;;;;;;5096402;28;20111;-65
2022/05/04 05:12:29;;;;;;;12.77;7.20;;;9.00;99.90;;;;;;5097114;28;20487;-66
2022/05/04 05:17:39;;;;;;;13.02;8.05;;;9.00;99.90;;;;;;5097085;28;20044;-67
2022/05/04 05:20:05;;;;;;;12.55;7.50;;;9.10;99.90;;;;;;5096335;28;20039;-65
2022/05/04 05:22:32;;;;;;;16.67;8.10;;;9.10;99.90;;;;;;5097124;28;20036;-64
2022/05/04 05:24:57;;;;;;;15.60;7.88;;;9.20;99.90;;;;;;5096304;28;20089;-65
2022/05/04 05:27:23;;;;;;;20.25;8.25;;;9.20;99.90;;;;;;5097140;28;20107;-64
2022/05/04 05:29:49;;;;;;;15.43;7.63;;;9.30;99.90;;;;;;5096839;28;20280;-64
2022/05/04 05:32:15;;;;;;;11.88;7.38;;;9.30;99.90;;;;;;5097029;28;20107;-64
2022/05/04 05:34:41;;;;;;;14.77;7.50;;;9.30;99.90;;;;;;5096788;28;20024;-64
2022/05/04 05:37:07;;;;;;;18.33;7.22;;;9.40;99.90;;;;;;5097081;28;20295;-65
2022/05/04 05:39:33;;;;;;;13.68;7.43;;;9.40;99.90;;;;;;5096691;28;20107;-65
2022/05/04 05:42:02;;;;;;;15.75;7.85;;;9.50;99.90;;;;;;5096716;28;20036;-64
2022/05/04 05:44:27;;;;;;;14.00;6.88;;;9.60;99.90;;;;;;5096791;28;20408;-65
2022/05/04 05:46:53;;;;;;;13.68;7.10;;;9.50;99.90;;;;;;5097014;28;20059;-65
2022/05/04 05:49:19;;;;;;;13.48;7.13;;;9.60;99.90;;;;;;5095837;28;20450;-65
2022/05/04 05:51:48;;;;;;;12.15;6.93;;;9.70;99.90;;;;;;5079200;28;20036;-65
2022/05/04 05:54:15;;;;;;;17.23;7.57;;;9.90;99.90;;;;;;5097024;28;20105;-65
2022/05/04 05:56:41;;;;;;;14.60;7.25;;;10.00;99.90;;;;;;5096912;28;20040;-65
2022/05/04 05:59:07;;;;;;;14.90;7.35;;;10.00;99.90;;;;;;5097014;28;20319;-66
2022/05/04 06:01:34;;;;;;;13.85;7.15;;;10.00;99.90;;;;;;5095995;28;20077;-65
2022/05/04 06:03:59;;;;;;;14.02;6.85;;;10.10;99.90;;;;;;5096579;28;20028;-65
2022/05/04 06:06:32;;;;;;;13.07;6.70;;;10.00;99.90;;;;;;5096565;28;20077;-65
2022/05/04 06:08:57;;;;;;;13.52;7.13;;;10.20;99.90;;;;;;5096684;28;20400;-65
2022/05/04 06:11:23;;;;;;;11.77;6.40;;;10.20;99.90;;;;;;5096521;28;20042;-65
2022/05/04 06:13:53;;;;;;;12.05;6.03;;;10.30;99.90;;;;;;5096581;28;20035;-66
2022/05/04 06:16:19;;;;;;;12.77;6.00;;;10.40;99.90;;;;;;5096536;28;20377;-66
2022/05/04 06:18:46;;;;;;;12.63;6.13;;;10.30;99.90;;;;;;5096453;28;20383;-65
2022/05/04 06:21:12;;;;;;;14.30;6.97;;;10.30;99.90;;;;;;5098465;28;20044;-65
2022/05/04 06:23:38;;;;;;;10.32;5.47;;;10.40;99.90;;;;;;5100235;28;20040;-66
2022/05/04 06:26:04;;;;;;;14.35;6.28;;;11.10;99.90;;;;;;5100086;28;20020;-64
2022/05/04 06:28:30;;;;;;;12.65;5.65;;;10.80;99.90;;;;;;5100140;28;20035;-64
2022/05/04 06:36:25;;;;;;;11.00;5.80;;;10.70;99.90;;;;;;5099914;28;20053;-63
2022/05/04 06:38:51;;;;;;;16.25;5.63;;;10.60;99.90;;;;;;5098977;28;20111;-64
2022/05/04 06:41:18;;;;;;;15.63;6.28;;;10.70;99.90;;;;;;5099831;28;20111;-65
2022/05/04 06:43:45;;;;;;;13.90;5.68;;;10.90;99.90;;;;;;5099993;28;20043;-63
2022/05/04 06:46:11;;;;;;;15.27;6.20;;;10.90;99.90;;;;;;5099488;28;20028;-63
2022/05/04 06:48:37;;;;;;;14.73;6.13;;;11.00;99.90;;;;;;5099581;28;20327;-63
2022/05/04 06:51:03;;;;;;;8.45;5.85;;;11.30;99.90;;;;;;5098908;28;20036;-63
2022/05/04 06:53:29;;;;;;;9.90;6.07;;;11.40;99.90;;;;;;5099203;28;20046;-63
2022/05/04 06:55:54;;;;;;;10.90;5.65;;;11.50;99.90;;;;;;5099542;28;20056;-64
2022/05/04 06:58:20;;;;;;;12.60;5.75;;;11.60;99.90;;;;;;5098739;28;20046;-64
2022/05/04 07:00:46;;;;;;;9.05;5.35;;;11.80;99.90;;;;;;5099424;28;20028;-63
2022/05/04 07:03:12;;;;;;;13.45;5.90;;;11.90;99.90;;;;;;5098678;28;20391;-63
2022/05/04 07:05:38;;;;;;;14.25;6.00;;;12.10;99.90;;;;;;5098713;28;20303;-64
2022/05/04 07:08:04;;;;;;;12.98;6.15;;;12.00;99.90;;;;;;5099583;28;20039;-64
2022/05/04 07:10:29;;;;;;;12.13;6.15;;;12.20;99.90;;;;;;5098498;28;20036;-64
2022/05/04 07:12:56;;;;;;;12.65;6.45;;;12.40;99.90;;;;;;5099305;28;20036;-64
2022/05/04 07:15:22;;;;;;;16.58;6.35;;;12.60;99.90;;;;;;5099170;28;20122;-64
2022/05/04 07:17:48;;;;;;;9.80;5.60;;;12.90;99.90;;;;;;5099078;28;20111;-63
2022/05/04 07:20:14;;;;;;;15.75;6.90;;;13.10;99.90;;;;;;5099099;28;20016;-64
2022/05/04 07:22:39;;;;;;;11.27;5.97;;;13.30;99.90;;;;;;5099053;28;20395;-64
2022/05/04 07:25:06;;;;;;;12.57;6.13;;;13.10;99.90;;;;;;5098489;28;20395;-64
2022/05/04 07:27:31;;;;;;;10.55;5.95;;;12.70;99.90;;;;;;5098225;28;20081;-64
2022/05/04 07:29:57;;;;;;;12.63;6.40;;;12.80;99.90;;;;;;5098928;28;20107;-64
2022/05/04 07:32:23;;;;;;;10.93;6.28;;;12.80;99.90;;;;;;5098147;28;20028;-64
2022/05/04 07:34:49;;;;;;;13.13;6.65;;;12.70;99.90;;;;;;5098782;28;20043;-64
2022/05/04 07:37:15;;;;;;;15.15;7.22;;;12.70;99.90;;;;;;5098237;28;20033;-64
2022/05/04 07:42:25;;;;;;;13.13;6.40;;;12.80;99.90;;;;;;5097939;28;20070;-64
2022/05/04 07:45:01;;;;;;;13.55;5.93;;;12.70;99.90;;;;;;5098819;28;20067;-65
2022/05/04 07:47:29;;;;;;;12.85;5.97;;;12.80;99.90;;;;;;5098853;28;20024;-65
2022/05/04 07:49:55;;;;;;;16.40;6.30;;;12.90;99.90;;;;;;5098389;28;20047;-63
2022/05/04 07:52:21;;;;;;;11.80;6.43;;;13.00;99.90;;;;;;5098599;28;20101;-64
2022/05/04 07:54:47;;;;;;;13.90;6.68;;;13.20;99.90;;;;;;5098364;28;20036;-64
2022/05/04 07:57:13;;;;;;;9.82;6.30;;;13.20;99.90;;;;;;5098222;28;20312;-64
2022/05/04 07:59:39;;;;;;;9.68;6.50;;;13.20;99.90;;;;;;5098239;28;20044;-63
2022/05/04 08:04:50;;;;;;;18.10;7.72;;;13.40;99.90;;;;;;5098475;28;20280;-65
2022/05/04 08:07:17;;;;;;;14.75;7.10;;;13.40;99.90;;;;;;5098163;28;20122;-65
2022/05/04 08:09:43;;;;;;;13.63;7.63;;;13.50;99.90;;;;;;5098131;28;20041;-64
2022/05/04 08:12:11;;;;;;;11.77;7.07;;;13.60;99.90;;;;;;5097995;28;20032;-64
2022/05/04 08:14:41;;;;;;;12.40;7.32;;;13.40;99.90;;;;;;5097363;28;20032;-64
2022/05/04 08:17:07;;;;;;;15.57;10.00;;;13.50;99.90;;;;;;5097946;28;20059;-64
2022/05/04 08:19:34;;;;;;;15.65;9.52;;;13.70;99.90;;;;;;5098353;28;20042;-65
2022/05/04 08:22:00;;;;;;;15.30;9.05;;;13.80;99.90;;;;;;5097052;28;20032;-62
2022/05/04 08:24:27;;;;;;;15.48;8.50;;;14.00;99.90;;;;;;5098050;28;20085;-63
2022/05/04 08:26:53;;;;;;;15.77;8.25;;;13.80;99.90;;;;;;5097793;28;20049;-64
2022/05/04 08:29:19;;;;;;;13.85;8.32;;;13.80;99.90;;;;;;5097807;28;20032;-64
2022/05/04 08:31:45;;;;;;;16.50;7.82;;;14.00;99.90;;;;;;5097728;28;20040;-64
2022/05/04 08:34:11;;;;;;;14.23;7.95;;;14.10;99.90;;;;;;5097723;28;20422;-64
2022/05/04 08:36:37;;;;;;;14.15;8.40;;;14.20;99.90;;;;;;5097641;28;20039;-64
2022/05/04 08:39:06;;;;;;;16.60;8.43;;;14.30;99.90;;;;;;5097564;28;20089;-63
2022/05/04 08:41:38;;;;;;;17.38;8.85;;;14.20;99.90;;;;;;5097503;28;20044;-64
2022/05/04 08:44:08;;;;;;;15.20;8.93;;;13.70;99.90;;;;;;5096493;28;20024;-63
2022/05/04 08:46:40;;;;;;;16.77;9.57;;;13.50;99.90;;;;;;5097401;28;20292;-64
2022/05/04 08:49:07;;;;;;;16.55;8.60;;;13.70;99.90;;;;;;5097362;28;20067;-64
2022/05/04 08:51:36;;;;;;;15.18;8.02;;;14.10;99.90;;;;;;5097352;28;20028;-64
2022/05/04 08:54:04;;;;;;;18.73;9.80;;;14.40;99.90;;;;;;5097369;28;20024;-64
2022/05/04 08:56:31;;;;;;;16.05;9.63;;;14.70;99.90;;;;;;5097258;28;20042;-64
2022/05/04 08:58:57;;;;;;;14.52;8.57;;;14.60;99.90;;;;;;5096603;28;20042;-64
2022/05/04 09:01:24;;;;;;;18.08;10.68;;;14.80;99.90;;;;;;5096395;28;20024;-65
2022/05/04 09:03:50;;;;;;;13.63;8.93;;;15.00;99.90;;;;;;5097302;28;20016;-65
2022/05/04 09:06:30;;;;;;;19.10;10.40;;;15.20;99.90;;;;;;5096473;28;20040;-65
2022/05/04 09:09:06;;;;;;;17.65;11.02;;;15.40;99.90;;;;;;5097119;28;20034;-64
2022/05/04 09:11:35;;;;;;;19.42;9.85;;;15.20;99.90;;;;;;5097540;28;20032;-66
2022/05/04 09:14:27;;;;;;;17.17;9.65;;;15.40;99.90;;;;;;5097967;28;20049;-65
2022/05/04 09:16:53;;;;;;;17.85;10.40;;;15.40;99.90;;;;;;5096515;28;20047;-65
2022/05/04 09:19:19;;;;;;;17.77;10.65;;;15.50;99.90;;;;;;5096735;28;20028;-65
2022/05/04 09:21:47;;;;;;;24.30;10.60;;;15.70;99.90;;;;;;5097021;28;20277;-65
2022/05/04 09:24:29;;;;;;;20.95;10.98;;;15.50;99.90;;;;;;5097027;28;20272;-65
2022/05/04 09:26:58;;;;;;;16.85;10.00;;;15.70;99.90;;;;;;5097004;28;20063;-64
2022/05/04 09:29:35;;;;;;;18.75;10.25;;;15.90;99.90;;;;;;5096182;28;20032;-65
2022/05/04 09:32:15;;;;;;;19.70;11.20;;;16.10;99.90;;;;;;5096934;28;20059;-65
2022/05/04 09:34:42;;;;;;;18.00;10.45;;;16.30;99.90;;;;;;5096342;28;20103;-65
2022/05/04 09:45:39;;;;;;;15.60;10.60;;;16.50;99.90;;;;;;5097134;28;20075;-65
2022/05/04 09:48:06;;;;;;;18.27;11.82;;;16.50;99.90;;;;;;5097155;28;20024;-65
2022/05/04 09:50:42;;;;;;;20.63;10.77;;;16.60;99.90;;;;;;5096367;28;20046;-64
2022/05/04 09:53:07;;;;;;;19.45;11.30;;;16.70;99.90;;;;;;5096812;28;20107;-65
2022/05/04 09:55:35;;;;;;;20.58;12.18;;;16.50;99.90;;;;;;5097961;28;20055;-65
2022/05/04 09:58:02;;;;;;;22.15;12.57;;;16.70;99.90;;;;;;5100510;28;20341;-64
2022/05/04 10:00:28;;;;;;;17.80;11.80;;;16.80;99.90;;;;;;5100025;28;20032;-64
2022/05/04 10:02:56;;;;;;;19.88;12.02;;;16.70;99.90;;;;;;5100665;28;20056;-65
2022/05/04 10:05:23;;;;;;;18.95;11.60;;;16.70;99.90;;;;;;5100807;28;20338;-65
2022/05/04 10:07:52;;;;;;;16.92;10.35;;;16.60;99.90;;;;;;5100434;28;20032;-65
2022/05/04 10:10:20;;;;;;;19.55;12.52;;;16.80;99.90;;;;;;5100620;28;20486;-65
2022/05/04 10:12:48;;;;;;;18.08;11.93;;;17.10;99.90;;;;;;5100481;28;20036;-65
2022/05/04 10:15:16;;;;;;;22.73;12.25;;;17.30;99.90;;;;;;5100323;28;20081;-63
2022/05/04 10:17:53;;;;;;;22.05;12.30;;;17.40;99.90;;;;;;5100255;28;20047;-65
2022/05/04 10:20:22;;;;;;;19.90;12.23;;;17.50;99.90;;;;;;5099489;28;20272;-63
2022/05/04 10:22:57;;;;;;;21.52;13.20;;;17.50;99.90;;;;;;5100176;28;20031;-64
2022/05/04 10:25:25;;;;;;;17.20;11.95;;;17.90;99.90;;;;;;5100147;28;20052;-63
2022/05/04 10:28:07;;;;;;;19.55;12.00;;;18.00;99.90;;;;;;5100095;28;20085;-63
2022/05/04 10:30:36;;;;;;;18.07;11.40;;;17.60;99.90;;;;;;5100095;28;20032;-64
2022/05/04 10:33:11;;;;;;;23.42;13.00;;;17.80;99.90;;;;;;5099927;28;20032;-64
2022/05/04 10:35:42;;;;;;;19.30;13.27;;;17.90;99.90;;;;;;5099874;28;20050;-63
2022/05/04 10:38:35;;;;;;;23.23;13.87;;;17.20;99.90;;;;;;5100146;28;20055;-65
2022/05/04 10:41:02;;;;;;;17.03;12.47;;;16.20;99.90;;;;;;5094883;28;20447;-65
2022/05/04 10:43:45;;;;;;;16.92;12.48;;;16.40;99.90;;;;;;5100299;28;20081;-65
2022/05/04 10:46:13;;;;;;;23.60;13.90;;;16.90;99.90;;;;;;5099812;28;20040;-63
2022/05/04 10:48:44;;;;;;;19.05;12.02;;;17.50;99.90;;;;;;5099920;28;20116;-66
2022/05/04 10:51:21;;;;;;;22.35;12.13;;;18.00;99.90;;;;;;5099897;28;20323;-64
2022/05/04 10:54:15;;;;;;;16.45;10.15;;;18.90;99.90;;;;;;5099740;28;20043;-67
2022/05/04 10:56:49;;;;;;;20.35;10.93;;;20.40;99.90;;;;;;5095824;28;20044;-65
2022/05/04 10:59:25;;;;;;;15.77;11.07;;;20.60;99.90;;;;;;5099449;28;20058;-66
2022/05/04 11:01:56;;;;;;;14.73;10.93;;;22.20;98.80;;;;;;5099412;28;20032;-66
2022/05/04 11:04:25;;;;;;;16.70;12.20;;;22.10;96.90;;;;;;5099965;28;20020;-64
2022/05/04 11:07:07;;;;;;;18.45;11.23;;;23.30;95.70;;;;;;5098242;28;20023;-67
2022/05/04 11:09:39;;;;;;;16.35;11.70;;;24.10;94.70;;;;;;5099968;28;20036;-66
2022/05/04 11:12:10;;;;;;;;;;;24.70;92.50;;;;;;5099722;28;20040;-65
2022/05/04 11:14:36;;;;;;;16.13;11.55;;;24.90;90.20;;;;;;5099459;28;19973;-65
2022/05/04 11:17:13;;;;;;;17.75;12.13;;;25.10;89.60;;;;;;5099361;28;20043;-67
2022/05/04 11:19:46;;;;;;;20.05;13.65;;;24.00;90.10;;;;;;5098966;28;20048;-67
2022/05/04 11:22:14;;;;;;;17.70;12.15;;;22.80;91.20;;;;;;5098889;28;20040;-66
2022/05/04 11:24:40;;;;;;;18.95;12.73;;;23.90;91.10;;;;;;5099530;28;20096;-67
2022/05/04 11:27:06;;;;;;;18.05;11.20;;;24.80;87.80;;;;;;5098894;28;20111;-65
2022/05/04 11:29:33;;;;;;;13.55;9.63;;;26.20;84.60;;;;;;5098187;28;20036;-66
2022/05/04 11:32:02;;;;;;;11.88;9.27;;;25.70;83.20;;;;;;5098987;28;20036;-67
2022/05/04 11:34:36;;;;;;;15.32;10.48;;;26.10;82.50;;;;;;5099122;28;20040;-67
2022/05/04 11:37:11;;;;;;;16.08;12.73;;;27.60;78.30;;;;;;5097990;28;20308;-66
2022/05/04 11:39:38;;;;;;;12.70;11.25;;;28.60;74.00;;;;;;5099272;28;20032;-65
2022/05/04 11:42:07;;;;;;;16.00;11.38;;;28.70;71.80;;;;;;5098861;28;20031;-64
2022/05/04 11:44:34;;;;;;;19.85;11.70;;;27.90;70.10;;;;;;5097948;28;20028;-66
2022/05/04 11:47:02;;;;;;;13.75;10.18;;;27.00;72.60;;;;;;5098491;28;20032;-66
2022/05/04 11:49:34;;;;;;;14.63;9.13;;;27.20;72.70;;;;;;5098328;28;20051;-64
2022/05/04 11:52:00;;;;;;;13.63;9.98;;;27.70;70.10;;;;;;5098597;28;20097;-66
2022/05/04 11:54:27;;;;;;;11.98;6.60;;;28.70;68.70;;;;;;5098481;28;20040;-65
2022/05/04 11:56:53;;;;;;;9.75;7.18;;;29.40;67.00;;;;;;5098212;28;20034;-66
2022/05/04 11:59:19;;;;;;;12.13;7.97;;;29.70;64.40;;;;;;5098288;28;20028;-65
2022/05/04 12:01:46;;;;;;;11.63;7.22;;;29.30;64.40;;;;;;5097877;28;20039;-63
2022/05/04 12:04:14;;;;;;;10.63;5.60;;;30.30;61.70;;;;;;5098271;28;20070;-66
2022/05/04 12:06:43;;;;;;;7.18;4.43;;;31.00;58.80;;;;;;5098124;28;20089;-64
2022/05/04 12:09:09;;;;;;;9.77;5.00;;;30.60;58.90;;;;;;5098237;28;20113;-66
2022/05/04 12:11:35;;;;;;;9.68;5.32;;;31.30;58.00;;;;;;5098072;28;20280;-66
2022/05/04 12:14:01;;;;;;;5.85;3.80;;;31.50;56.40;;;;;;5098131;28;20031;-67
2022/05/04 12:16:28;;;;;;;6.38;4.43;;;31.80;55.50;;;;;;5098100;28;20468;-66
2022/05/04 12:18:54;;;;;;;9.70;4.50;;;32.20;54.60;;;;;;5097470;28;20119;-66
2022/05/04 12:21:21;;;;;;;7.55;4.68;;;31.50;52.90;;;;;;5097795;28;20032;-67
2022/05/04 12:23:52;;;;;;;6.20;3.40;;;30.90;56.00;;;;;;5097851;28;20039;-66
2022/05/04 12:26:19;;;;;;;6.80;4.23;;;31.30;55.20;;;;;;5097993;28;20039;-67
2022/05/04 12:34:16;;;;;;;6.32;4.30;;;33.80;51.20;;;;;;5098322;28;20067;-67
2022/05/04 12:36:46;;;;;;;8.10;4.40;;;34.30;49.00;;;;;;5097815;28;20419;-68
2022/05/04 12:39:12;;;;;;;7.57;4.93;;;32.20;51.20;;;;;;5097566;28;20134;-67
2022/05/04 12:41:38;;;;;;;6.13;4.03;;;32.30;51.90;;;;;;5096939;28;20036;-66
2022/05/04 12:44:06;;;;;;;8.68;5.20;;;32.90;51.60;;;;;;5097860;28;20031;-67
2022/05/04 12:46:32;;;;;;;9.32;4.93;;;33.80;51.10;;;;;;5080204;28;20020;-66
2022/05/04 12:48:58;;;;;;;6.63;4.65;;;33.90;51.10;;;;;;5097600;28;20047;-66
2022/05/04 12:51:25;;;;;;;7.82;5.25;;;34.30;48.70;;;;;;5097598;28;20111;-66
2022/05/04 12:53:51;;;;;;;9.98;5.35;;;33.80;49.00;;;;;;5097167;28;20040;-66
2022/05/04 12:59:03;;;;;;;8.75;4.93;;;31.90;51.20;;;;;;5096476;28;20130;-68
2022/05/04 13:01:31;;;;;;;8.27;5.00;;;30.70;52.10;;;;;;5097225;28;20024;-66
2022/05/04 13:04:00;;;;;;;9.75;5.25;;;29.70;54.10;;;;;;5097461;28;20311;-67
2022/05/04 13:06:29;;;;;;;7.60;5.43;;;29.20;54.90;;;;;;5096542;28;20039;-65
2022/05/04 13:08:55;;;;;;;9.50;4.38;;;29.00;56.00;;;;;;5097615;28;20328;-66
2022/05/04 13:11:24;;;;;;;10.13;4.93;;;29.80;55.70;;;;;;5097046;28;20032;-63
2022/05/04 13:13:50;;;;;;;7.22;3.95;;;31.50;52.70;;;;;;5096419;28;20361;-66
2022/05/04 13:16:16;;;;;;;3.92;3.53;;;30.90;52.30;;;;;;5097041;28;20051;-65
2022/05/04 13:18:45;;;;;;;6.28;3.75;;;31.30;53.30;;;;;;5096997;28;20403;-66
2022/05/04 13:21:11;;;;;;;6.18;3.40;;;33.20;51.40;;;;;;5096976;28;20036;-68
2022/05/04 13:23:38;;;;;;;5.60;3.45;;;35.00;49.20;;;;;;5097333;28;20431;-67
2022/05/04 13:26:03;;;;;;;5.13;3.47;;;36.60;47.00;;;;;;5097195;28;20032;-67